createdAt,value
2022-12-20T05:59:24.238Z,70.80
2022-12-20T06:02:36.832Z,70.80
2022-12-20T06:05:34.231Z,71.00
2022-12-20T06:08:23.828Z,71.10
2022-12-20T06:14:28.399Z,71.50
2022-12-20T06:17:01.561Z,71.30
2022-12-20T06:20:03.401Z,71.10
2022-12-20T06:22:33.807Z,70.90
2022-12-20T06:29:14.956Z,71.10
2022-12-20T06:32:04.574Z,70.80
2022-12-20T06:46:02.024Z,70.20
2022-12-20T08:04:20.366Z,69.40
2022-12-20T08:07:23.070Z,69.70
2022-12-20T08:10:31.200Z,69.60
2022-12-20T08:13:17.823Z,69.40
2022-12-20T08:16:03.279Z,69.70
2022-12-20T08:19:15.299Z,69.40
2022-12-20T08:22:10.510Z,69.20
2022-12-20T08:25:01.889Z,69.00
2022-12-20T08:27:54.383Z,69.30
2022-12-20T08:30:59.100Z,68.90
2022-12-20T08:33:39.203Z,69.00
2022-12-20T08:36:38.508Z,69.40
2022-12-20T08:40:02.820Z,68.90
2022-12-20T08:42:54.182Z,68.60
2022-12-20T08:45:43.678Z,69.00
2022-12-20T08:48:32.044Z,68.60
2022-12-20T08:51:02.750Z,69.00
2022-12-20T08:53:54.431Z,68.80
2022-12-20T08:56:45.690Z,68.60
2022-12-20T08:59:34.981Z,68.40
2022-12-20T09:02:36.280Z,68.70
2022-12-20T09:05:23.047Z,68.70
2022-12-20T09:08:06.293Z,68.90
2022-12-20T09:11:00.403Z,68.70
2022-12-20T09:17:02.246Z,68.70
2022-12-20T09:20:41.232Z,68.50
2022-12-20T09:23:41.779Z,68.40
2022-12-20T09:26:29.544Z,68.90
2022-12-20T09:29:29.535Z,68.60
2022-12-20T09:32:40.221Z,68.70
2022-12-20T09:35:46.086Z,68.40
2022-12-20T09:38:53.406Z,68.40
2022-12-20T09:42:06.960Z,68.50
2022-12-20T09:48:01.598Z,68.00
2022-12-20T09:51:11.249Z,68.30
2022-12-20T10:44:06.389Z,66.70
2022-12-20T10:46:52.705Z,66.90
2022-12-20T10:49:45.320Z,66.70
2022-12-20T10:52:17.730Z,66.80
2022-12-20T10:54:53.269Z,66.90
2022-12-20T10:57:59.777Z,67.20
2022-12-20T11:00:56.132Z,67.00
2022-12-20T11:03:51.329Z,66.70
2022-12-20T11:06:49.064Z,67.10
2022-12-20T11:09:53.886Z,66.90
2022-12-20T11:13:07.477Z,66.80
2022-12-20T11:19:21.549Z,66.80
2022-12-20T11:22:36.445Z,67.00
2022-12-20T11:25:56.933Z,66.90
2022-12-20T11:29:09.779Z,66.90
2022-12-20T11:32:13.750Z,66.80
2022-12-20T11:35:18.265Z,67.00
2022-12-20T11:38:17.015Z,67.00
2022-12-20T11:41:07.059Z,66.80
2022-12-20T11:44:26.319Z,66.70
2022-12-20T11:47:35.281Z,66.40
2022-12-20T11:50:56.648Z,65.80
2022-12-20T11:53:57.958Z,66.00
2022-12-20T12:00:00.759Z,66.30
2022-12-20T12:03:06.453Z,65.90
2022-12-20T12:06:03.034Z,66.10
2022-12-20T12:09:15.152Z,66.20
2022-12-20T12:12:07.441Z,66.30
2022-12-20T12:15:34.438Z,66.60
2022-12-20T12:18:40.223Z,66.40
2022-12-20T12:25:15.826Z,65.80
2022-12-20T12:28:17.094Z,65.50
2022-12-20T12:31:16.243Z,65.60
2022-12-20T12:33:57.421Z,65.50
2022-12-20T12:37:18.358Z,65.80
2022-12-20T12:40:33.919Z,65.60
2022-12-20T12:43:43.297Z,65.70
2022-12-20T12:46:50.215Z,65.90
2022-12-20T12:53:04.854Z,66.30
2022-12-20T12:56:19.170Z,66.00
2022-12-20T12:59:32.773Z,66.10
2022-12-20T13:03:13.404Z,66.30
2022-12-20T13:06:06.375Z,66.40
2022-12-20T13:09:27.305Z,66.80
2022-12-20T13:12:45.175Z,66.20
2022-12-20T13:16:12.463Z,66.30
2022-12-20T13:19:26.412Z,66.40
2022-12-20T13:22:41.321Z,66.40
2022-12-20T13:25:46.151Z,66.50
2022-12-20T13:29:08.339Z,66.50
2022-12-20T13:32:11.175Z,66.50
2022-12-20T13:35:38.541Z,66.70
2022-12-20T13:39:33.773Z,66.70
2022-12-20T13:49:26.715Z,67.00
2022-12-20T13:52:48.835Z,66.70
2022-12-20T13:59:34.711Z,66.80
2022-12-20T14:02:49.914Z,66.90
2022-12-20T14:05:43.682Z,67.50
2022-12-20T14:08:48.373Z,66.90
2022-12-20T14:11:38.060Z,66.90
2022-12-20T14:21:15.219Z,67.20
2022-12-20T14:24:24.774Z,67.50
2022-12-20T14:27:24.902Z,67.10
2022-12-20T14:30:26.806Z,67.50
2022-12-20T14:33:58.393Z,66.90
2022-12-20T14:36:52.146Z,66.80
2022-12-20T14:39:51.275Z,67.10
2022-12-20T14:42:23.064Z,67.10
2022-12-20T14:44:51.573Z,67.30
2022-12-20T14:47:26.058Z,67.30
2022-12-20T14:50:00.682Z,67.10
2022-12-20T14:52:36.082Z,67.30
2022-12-20T14:55:11.378Z,67.40
2022-12-20T14:57:47.534Z,67.20
2022-12-20T15:00:25.224Z,67.40
2022-12-20T15:03:01.830Z,67.20
2022-12-20T15:05:51.116Z,67.10
2022-12-20T15:08:24.069Z,67.30
2022-12-20T15:10:55.880Z,67.20
2022-12-20T15:13:52.100Z,67.30
2022-12-20T15:16:23.013Z,67.40
2022-12-20T15:18:59.777Z,67.30
2022-12-20T15:21:45.642Z,67.30
2022-12-20T15:24:42.834Z,67.40
2022-12-20T15:27:42.713Z,67.30
2022-12-20T15:30:25.217Z,67.30
2022-12-20T15:33:20.512Z,67.10
2022-12-20T15:36:11.642Z,67.20
2022-12-20T15:39:19.485Z,66.90
2022-12-20T15:42:31.470Z,66.90
2022-12-20T15:45:15.735Z,66.60
2022-12-20T15:48:08.599Z,67.20
2022-12-20T15:51:24.030Z,67.00
2022-12-20T15:54:29.118Z,67.20
2022-12-20T15:57:21.350Z,66.90
2022-12-20T16:00:03.700Z,67.10
2022-12-20T16:03:12.478Z,67.30
2022-12-20T16:06:13.347Z,67.00
2022-12-20T16:09:26.158Z,66.80
2022-12-20T16:12:09.447Z,66.70
2022-12-20T16:15:02.829Z,66.80
2022-12-20T16:21:16.797Z,67.10
2022-12-20T16:24:14.655Z,67.00
2022-12-20T16:33:28.758Z,67.00
2022-12-20T16:36:05.237Z,67.10
2022-12-20T16:38:35.622Z,68.00
2022-12-20T16:41:16.579Z,67.10
2022-12-20T16:43:46.841Z,66.70
2022-12-20T16:46:18.362Z,67.00
2022-12-20T16:48:52.525Z,66.90
2022-12-20T16:54:28.418Z,66.80
2022-12-20T16:57:03.439Z,67.00
2022-12-20T16:59:59.250Z,66.90
2022-12-20T17:02:34.080Z,66.60
2022-12-20T17:05:35.885Z,66.80
2022-12-20T17:14:43.141Z,66.70
2022-12-20T17:17:12.087Z,66.80
2022-12-20T17:19:46.792Z,66.90
2022-12-20T17:25:29.678Z,66.70
2022-12-20T17:28:00.821Z,66.80
2022-12-20T17:30:30.861Z,67.20
2022-12-20T17:33:05.512Z,67.10
2022-12-20T17:35:39.873Z,67.00
2022-12-20T17:38:16.113Z,67.00
2022-12-20T17:40:44.810Z,67.00
2022-12-20T17:43:14.208Z,67.10
2022-12-20T17:45:47.437Z,67.10
2022-12-20T17:48:16.024Z,67.00
2022-12-20T17:50:47.963Z,67.20
2022-12-20T17:53:35.204Z,67.30
2022-12-20T17:56:12.571Z,67.20
2022-12-20T17:58:52.373Z,67.10
2022-12-20T18:01:23.484Z,67.30
2022-12-20T18:04:03.684Z,67.00
2022-12-20T18:06:34.289Z,66.90
2022-12-20T18:09:07.272Z,67.00
2022-12-20T18:11:42.984Z,67.00
2022-12-20T18:14:12.151Z,67.10
2022-12-20T18:16:42.058Z,67.10
2022-12-20T18:19:26.376Z,67.20
2022-12-20T18:21:58.269Z,66.90
2022-12-20T18:24:28.791Z,67.10
2022-12-20T18:26:57.783Z,67.10
2022-12-20T18:29:26.782Z,67.20
2022-12-20T18:31:58.598Z,67.20
2022-12-20T18:34:27.803Z,67.20
2022-12-20T18:37:03.588Z,67.10
2022-12-20T18:39:34.536Z,67.20
2022-12-20T18:42:11.963Z,67.00
2022-12-20T18:44:40.530Z,67.00
2022-12-20T18:47:09.360Z,66.80
2022-12-20T18:49:39.238Z,66.90
2022-12-20T18:52:08.269Z,67.00
2022-12-20T18:54:38.010Z,67.10
2022-12-20T18:57:11.084Z,66.80
2022-12-20T18:59:40.394Z,66.90
2022-12-20T19:02:11.260Z,66.90
2022-12-20T19:04:54.819Z,66.70
2022-12-20T19:07:24.405Z,67.00
2022-12-20T19:10:00.738Z,67.10
2022-12-20T19:12:44.366Z,67.00
2022-12-20T19:15:20.641Z,66.70
2022-12-20T19:17:57.011Z,66.80
2022-12-20T19:23:40.132Z,66.60
2022-12-20T19:26:28.321Z,66.60
2022-12-20T19:29:07.576Z,67.10
2022-12-20T19:52:50.486Z,66.50
2022-12-20T19:55:20.471Z,66.80
2022-12-20T19:57:52.747Z,67.10
2022-12-20T20:19:18.129Z,66.70
2022-12-20T20:21:49.326Z,66.90
2022-12-20T20:24:20.016Z,66.90
2022-12-20T20:26:49.982Z,66.90
2022-12-20T20:29:19.112Z,67.00
2022-12-20T20:31:49.974Z,67.10
2022-12-20T20:34:22.615Z,67.00
2022-12-20T20:36:57.456Z,66.90
2022-12-20T20:39:25.944Z,67.00
2022-12-20T20:42:06.802Z,66.90
2022-12-20T20:44:37.085Z,67.00
2022-12-20T20:47:06.314Z,67.10
2022-12-20T20:49:38.123Z,66.70
2022-12-20T20:52:07.593Z,66.80
2022-12-20T20:54:39.381Z,66.70
2022-12-20T20:57:08.409Z,66.70
2022-12-20T20:59:37.738Z,66.70
2022-12-20T21:02:17.088Z,66.90
2022-12-20T21:05:24.562Z,66.20
2022-12-20T21:07:42.101Z,66.80
2022-12-20T21:10:15.100Z,66.90
2022-12-20T21:12:45.892Z,66.50
2022-12-20T21:15:23.623Z,66.70
2022-12-20T21:18:05.312Z,67.10
2022-12-20T21:21:24.839Z,66.80
2022-12-20T21:24:06.523Z,66.60
2022-12-20T21:26:36.405Z,66.70
2022-12-20T21:33:02.807Z,66.70
2022-12-20T21:35:54.104Z,66.70
2022-12-20T21:38:23.913Z,66.90
2022-12-20T21:51:14.992Z,66.60
2022-12-20T21:54:09.535Z,66.70
2022-12-20T21:56:47.925Z,66.70
2022-12-20T21:59:21.381Z,67.00
2022-12-20T22:04:35.998Z,67.50
2022-12-20T22:07:59.323Z,67.00
2022-12-20T22:10:35.081Z,66.50
2022-12-20T22:13:18.920Z,66.70
2022-12-20T22:15:49.436Z,66.90
2022-12-20T22:24:12.257Z,66.70
2022-12-20T22:26:45.114Z,67.50
2022-12-20T22:29:15.693Z,67.50
2022-12-20T22:31:51.237Z,67.20
2022-12-20T22:34:21.875Z,67.10
2022-12-20T22:36:55.951Z,67.20
2022-12-20T22:39:45.583Z,67.40
2022-12-20T22:42:35.143Z,66.90
2022-12-20T22:45:26.838Z,67.40
2022-12-20T22:48:01.397Z,66.70
2022-12-20T22:50:45.044Z,67.10
2022-12-20T22:53:29.319Z,67.10
2022-12-20T22:56:37.704Z,66.90
2022-12-20T22:59:07.921Z,67.00
2022-12-20T23:01:41.372Z,67.20
2022-12-20T23:04:45.094Z,67.30
2022-12-20T23:10:42.965Z,66.70
2022-12-20T23:14:02.236Z,67.50
2022-12-20T23:17:32.788Z,66.70
2022-12-20T23:33:21.121Z,67.00
2022-12-20T23:36:56.721Z,67.10
2022-12-20T23:40:22.442Z,66.90
2022-12-20T23:43:10.662Z,67.10
2022-12-20T23:46:34.842Z,67.10
2022-12-20T23:49:31.637Z,67.20
2022-12-20T23:58:58.760Z,67.50
